Time;durP1;ratioP1;P1;durP2;ratioP2;P2;SDS_P1;SDS_P2;PMS_P1;PMS_P2;Temp;Humidity;BMP_temperature;BMP_pressure;BME280_temperature;BME280_humidity;BME280_pressure;Samples;Min_cycle;Max_cycle;Signal;HPM_P1;HPM_P2
2020/12/11 00:01:39;;;;;;;18.38;11.95;;;;;;;;;;4949077;28;20023;-72
2020/12/11 00:04:05;;;;;;;20.15;13.52;;;;;;;;;;4956157;28;20422;-72
2020/12/11 00:06:31;;;;;;;20.20;14.05;;;;;;;;;;4969659;28;20041;-73
2020/12/11 00:08:57;;;;;;;20.92;13.77;;;;;;;;;;4968156;28;20085;-74
2020/12/11 00:11:29;;;;;;;18.00;13.93;;;;;;;;;;4968232;28;20631;-73
2020/12/11 00:13:56;;;;;;;20.13;13.45;;;;;;;;;;4968923;28;20126;-73
2020/12/11 00:16:22;;;;;;;21.63;13.68;;;;;;;;;;4968601;28;20039;-74
2020/12/11 00:18:48;;;;;;;19.92;13.98;;;;;;;;;;4968358;28;20023;-73
2020/12/11 00:21:14;;;;;;;18.48;12.88;;;;;;;;;;4966916;28;20034;-73
2020/12/11 00:23:40;;;;;;;22.83;15.65;;;;;;;;;;4968997;28;20118;-74
2020/12/11 00:26:06;;;;;;;20.80;14.80;;;;;;;;;;4968684;28;20109;-74
2020/12/11 00:28:32;;;;;;;19.08;13.77;;;;;;;;;;4969402;28;20033;-73
2020/12/11 00:30:59;;;;;;;22.02;14.98;;;;;;;;;;4969562;28;20022;-73
2020/12/11 00:33:26;;;;;;;21.15;15.00;;;1.90;99.90;;;;;;4969060;28;20089;-74
2020/12/11 00:35:52;;;;;;;20.25;13.10;;;1.60;99.90;;;;;;4967660;28;20030;-75
2020/12/11 00:38:18;;;;;;;23.42;15.45;;;1.40;99.90;;;;;;4968316;28;20475;-75
2020/12/11 00:40:44;;;;;;;21.63;14.63;;;1.50;99.90;;;;;;4969402;28;20038;-73
2020/12/11 00:43:10;;;;;;;23.05;14.50;;;1.60;99.90;;;;;;4968949;28;20855;-73
2020/12/11 00:45:35;;;;;;;26.00;17.65;;;1.50;99.90;;;;;;4968325;28;20043;-75
2020/12/11 00:48:01;;;;;;;24.80;17.00;;;1.50;99.90;;;;;;4969091;28;20042;-73
2020/12/11 00:50:27;;;;;;;24.70;16.50;;;1.50;99.90;;;;;;4968864;28;20034;-74
2020/12/11 00:52:52;;;;;;;25.58;16.15;;;1.60;99.90;;;;;;4968477;28;20031;-73
2020/12/11 00:55:20;;;;;;;22.70;15.90;;;1.50;99.90;;;;;;4968097;28;20098;-74
2020/12/11 00:57:46;;;;;;;24.90;16.52;;;1.40;99.90;;;;;;4968546;28;20023;-74
2020/12/11 01:00:14;;;;;;;28.42;18.27;;;1.40;99.90;;;;;;4968603;28;20371;-74
2020/12/11 01:02:40;;;;;;;24.30;16.25;;;1.40;99.90;;;;;;4968698;28;20031;-72
2020/12/11 01:05:06;;;;;;;22.33;14.05;;;1.40;99.90;;;;;;4967604;28;20029;-72
2020/12/11 01:07:32;;;;;;;25.02;16.05;;;1.30;99.90;;;;;;4968820;28;20553;-73
2020/12/11 01:09:57;;;;;;;24.15;16.38;;;1.30;99.90;;;;;;4969103;28;20435;-74
2020/12/11 01:12:23;;;;;;;23.58;15.63;;;1.30;99.90;;;;;;4968241;28;20027;-74
2020/12/11 01:14:49;;;;;;;27.38;15.60;;;1.30;99.90;;;;;;4982176;28;20062;-74
2020/12/11 01:17:15;;;;;;;22.90;14.70;;;;;;;;;;4955540;28;20049;-73
2020/12/11 01:19:41;;;;;;;27.42;17.83;;;;;;;;;;4948260;28;20472;-74
2020/12/11 01:22:07;;;;;;;26.83;16.60;;;;;;;;;;4947649;28;20063;-73
2020/12/11 01:24:33;;;;;;;28.98;17.85;;;;;;;;;;4948157;28;20058;-74
2020/12/11 01:26:59;;;;;;;26.67;17.45;;;;;;;;;;4948916;28;20038;-74
2020/12/11 01:29:25;;;;;;;26.17;16.02;;;;;;;;;;4949022;28;20034;-73
2020/12/11 01:31:58;;;;;;;26.08;14.93;;;;;;;;;;4948847;28;20329;-74
2020/12/11 01:34:24;;;;;;;27.33;17.10;;;;;;;;;;4948593;28;20027;-74
2020/12/11 01:36:50;;;;;;;31.73;18.52;;;;;;;;;;4963659;28;20113;-73
2020/12/11 01:39:16;;;;;;;29.30;18.42;;;;;;;;;;4948825;28;20130;-73
2020/12/11 01:41:42;;;;;;;27.73;17.40;;;;;;;;;;4948728;28;20027;-74
2020/12/11 01:44:09;;;;;;;26.92;17.38;;;;;;;;;;4962710;28;20074;-73
2020/12/11 01:46:37;;;;;;;22.90;14.50;;;;;;;;;;4949011;28;20031;-74
2020/12/11 01:49:03;;;;;;;28.75;19.00;;;;;;;;;;4948872;28;20772;-75
2020/12/11 01:51:29;;;;;;;31.10;19.38;;;;;;;;;;4948741;28;20423;-75
2020/12/11 01:53:56;;;;;;;31.95;19.65;;;;;;;;;;4948573;28;20078;-74
2020/12/11 01:56:24;;;;;;;25.95;16.23;;;;;;;;;;4948095;28;20019;-74
2020/12/11 01:58:53;;;;;;;30.65;18.92;;;;;;;;;;4963106;28;20062;-74
2020/12/11 02:01:21;;;;;;;31.98;20.20;;;;;;;;;;4962686;28;20123;-74
2020/12/11 02:03:48;;;;;;;32.67;19.33;;;;;;;;;;4947464;28;20031;-74
2020/12/11 02:06:14;;;;;;;29.70;19.27;;;;;;;;;;4947835;28;20027;-74
2020/12/11 02:08:40;;;;;;;30.95;19.85;;;;;;;;;;4948396;28;20616;-74
2020/12/11 02:11:16;;;;;;;30.55;19.58;;;;;;;;;;4948831;28;20198;-75
2020/12/11 02:13:42;;;;;;;31.38;20.20;;;;;;;;;;4948417;28;20039;-75
2020/12/11 02:16:08;;;;;;;31.23;20.42;;;;;;;;;;4951028;28;20514;-74
2020/12/11 02:18:34;;;;;;;30.17;20.20;;;;;;;;;;4967684;28;20077;-75
2020/12/11 02:21:00;;;;;;;31.48;20.02;;;;;;;;;;4967771;28;20042;-75
2020/12/11 02:23:26;;;;;;;31.15;19.30;;;;;;;;;;4967841;28;20058;-74
2020/12/11 02:25:52;;;;;;;34.22;20.40;;;;;;;;;;4967358;28;20030;-74
2020/12/11 02:28:18;;;;;;;28.95;18.77;;;;;;;;;;4967665;28;20039;-74
2020/12/11 02:30:44;;;;;;;29.33;18.85;;;;;;;;;;4968532;28;20126;-75
2020/12/11 02:33:10;;;;;;;30.02;19.15;;;;;;;;;;4983293;28;20151;-74
2020/12/11 02:35:36;;;;;;;31.58;19.10;;;;;;;;;;4968370;28;20027;-74
2020/12/11 02:38:02;;;;;;;30.25;19.75;;;;;;;;;;4972392;28;20030;-75
2020/12/11 02:40:28;;;;;;;30.45;20.05;;;;;;;;;;4987383;28;20022;-74
2020/12/11 02:42:54;;;;;;;31.27;20.48;;;;;;;;;;4972146;28;20027;-74
2020/12/11 02:45:20;;;;;;;29.77;19.83;;;;;;;;;;4986653;28;20029;-75
2020/12/11 02:47:46;;;;;;;31.50;20.70;;;;;;;;;;4972147;28;20127;-73
2020/12/11 02:50:12;;;;;;;29.63;19.38;;;;;;;;;;4964370;28;20106;-74
2020/12/11 02:52:38;;;;;;;29.08;19.23;;;;;;;;;;4971535;28;20057;-75
2020/12/11 02:55:04;;;;;;;32.45;20.20;;;;;;;;;;4971614;28;20033;-75
2020/12/11 02:57:30;;;;;;;29.73;18.73;;;;;;;;;;4971532;28;20042;-74
2020/12/11 02:59:56;;;;;;;32.67;20.60;;;;;;;;;;4970684;28;20078;-74
2020/12/11 03:02:22;;;;;;;33.60;20.27;;;;;;;;;;4972911;28;20031;-74
2020/12/11 03:04:48;;;;;;;33.08;20.30;;;;;;;;;;4972687;28;20037;-74
2020/12/11 03:07:14;;;;;;;31.17;19.98;;;;;;;;;;4988375;28;20033;-75
2020/12/11 03:09:40;;;;;;;33.53;20.60;;;;;;;;;;4973730;28;20105;-75
2020/12/11 03:12:06;;;;;;;35.00;20.77;;;;;;;;;;4973504;28;20023;-74
2020/12/11 03:14:32;;;;;;;37.17;22.48;;;;;;;;;;4972661;28;20125;-74
2020/12/11 03:16:59;;;;;;;34.47;20.75;;;;;;;;;;4972930;28;20563;-74
2020/12/11 03:19:25;;;;;;;33.45;20.77;;;;;;;;;;4988125;28;20033;-75
2020/12/11 03:21:51;;;;;;;37.03;20.92;;;1.30;99.90;;;;;;4987938;28;20133;-75
2020/12/11 03:24:16;;;;;;;35.50;20.80;;;0.70;99.90;;;;;;4972542;28;20110;-75
2020/12/11 03:26:42;;;;;;;34.20;21.50;;;0.70;99.90;;;;;;4972858;28;20141;-74
2020/12/11 03:29:08;;;;;;;33.75;20.83;;;0.80;99.90;;;;;;4987598;28;20019;-73
2020/12/11 03:31:33;;;;;;;35.83;22.10;;;0.80;99.90;;;;;;4972615;28;20015;-74
2020/12/11 03:33:59;;;;;;;33.03;20.25;;;0.90;99.90;;;;;;4972184;28;20026;-74
2020/12/11 03:36:25;;;;;;;34.22;20.52;;;;;;;;;;4952954;28;20059;-75
2020/12/11 03:38:51;;;;;;;30.90;19.08;;;;;;;;;;4953425;28;20106;-74
2020/12/11 03:41:17;;;;;;;31.90;19.98;;;;;;;;;;4951824;28;20114;-74
2020/12/11 03:43:43;;;;;;;33.00;20.15;;;;;;;;;;4951856;28;20149;-75
2020/12/11 03:46:17;;;;;;;31.75;19.42;;;0.90;99.90;;;;;;4952541;28;20435;-75
2020/12/11 03:48:43;;;;;;;29.83;18.88;;;1.20;99.90;;;;;;4953339;28;20027;-75
2020/12/11 03:51:15;;;;;;;32.38;19.75;;;1.20;99.90;;;;;;4953205;28;20054;-75
2020/12/11 03:53:41;;;;;;;34.05;20.23;;;1.30;99.90;;;;;;4965417;28;20077;-75
2020/12/11 03:56:06;;;;;;;32.78;20.17;;;1.30;99.90;;;;;;4987200;28;20027;-74
2020/12/11 03:58:32;;;;;;;33.28;20.30;;;1.30;99.90;;;;;;4972126;28;20031;-74
2020/12/11 04:00:58;;;;;;;30.25;18.67;;;1.20;99.90;;;;;;4972203;28;20158;-75
2020/12/11 04:03:23;;;;;;;30.17;18.92;;;1.10;99.90;;;;;;4970037;28;20035;-74
2020/12/11 04:05:49;;;;;;;33.13;19.58;;;1.00;99.90;;;;;;4969626;28;20491;-75
2020/12/11 04:08:14;;;;;;;34.08;19.98;;;1.00;99.90;;;;;;4984944;28;20030;-75
2020/12/11 04:10:40;;;;;;;31.38;19.52;;;1.00;99.90;;;;;;4970278;28;20035;-75
2020/12/11 04:13:05;;;;;;;31.50;18.77;;;1.00;99.90;;;;;;4970709;28;20037;-75
2020/12/11 04:15:31;;;;;;;31.92;20.45;;;0.80;99.90;;;;;;4969470;28;20074;-74
2020/12/11 04:17:57;;;;;;;34.00;19.85;;;0.80;99.90;;;;;;4970147;28;20159;-74
2020/12/11 04:20:22;;;;;;;33.30;19.50;;;0.80;99.90;;;;;;4984876;28;20062;-74
2020/12/11 04:22:51;;;;;;;33.97;20.17;;;0.70;99.90;;;;;;4981195;28;20485;-74
2020/12/11 04:25:17;;;;;;;33.45;19.73;;;0.70;99.90;;;;;;4969457;28;20065;-74
2020/12/11 04:27:42;;;;;;;34.72;21.00;;;0.70;99.90;;;;;;4969976;28;20069;-74
2020/12/11 04:30:08;;;;;;;34.00;20.00;;;0.60;99.90;;;;;;4969428;28;20406;-75
2020/12/11 04:32:33;;;;;;;33.90;20.05;;;0.60;99.90;;;;;;4983209;28;20035;-75
2020/12/11 04:34:59;;;;;;;34.90;20.05;;;0.70;99.90;;;;;;4968643;28;20034;-74
2020/12/11 04:37:24;;;;;;;33.85;21.15;;;0.70;99.90;;;;;;4969123;28;20026;-74
2020/12/11 04:39:50;;;;;;;34.00;20.13;;;0.70;99.90;;;;;;4968868;28;20033;-75
2020/12/11 04:42:17;;;;;;;37.05;20.95;;;0.60;99.90;;;;;;4969119;28;20034;-74
2020/12/11 04:44:42;;;;;;;35.75;20.48;;;0.60;99.90;;;;;;4968254;28;20054;-75
2020/12/11 04:47:09;;;;;;;34.42;20.13;;;0.60;99.90;;;;;;4969012;28;20465;-75
2020/12/11 04:49:36;;;;;;;33.08;20.50;;;0.70;99.90;;;;;;4969108;28;20066;-75
2020/12/11 04:52:05;;;;;;;35.08;20.92;;;0.70;99.90;;;;;;4984624;28;20056;-74
2020/12/11 04:54:36;;;;;;;36.08;21.20;;;0.50;99.90;;;;;;4969238;28;20034;-74
2020/12/11 04:57:03;;;;;;;38.67;22.90;;;;;;;;;;4970075;28;20122;-75
2020/12/11 04:59:29;;;;;;;41.60;23.17;;;;;;;;;;4968847;28;20031;-75
2020/12/11 05:01:58;;;;;;;41.17;23.10;;;;;;;;;;4984470;28;20037;-75
2020/12/11 05:04:24;;;;;;;40.67;23.13;;;;;;;;;;4969155;28;20065;-75
2020/12/11 05:06:51;;;;;;;35.38;21.38;;;0.20;99.90;;;;;;4969269;28;20051;-74
2020/12/11 05:09:20;;;;;;;37.67;21.70;;;0.00;99.90;;;;;;4983634;28;20026;-75
2020/12/11 05:11:47;;;;;;;34.90;21.45;;;0.00;99.90;;;;;;4969053;28;20038;-75
2020/12/11 05:14:27;;;;;;;34.25;19.38;;;0.10;99.90;;;;;;4968662;28;20018;-74
2020/12/11 05:17:04;;;;;;;33.95;19.80;;;0.20;99.90;;;;;;4968092;28;20053;-74
2020/12/11 05:19:49;;;;;;;32.13;19.00;;;0.20;99.90;;;;;;4968456;28;20015;-74
2020/12/11 05:22:15;;;;;;;32.45;18.60;;;0.20;99.90;;;;;;4968351;28;20054;-74
2020/12/11 05:24:48;;;;;;;31.00;18.60;;;0.30;99.90;;;;;;4967556;28;20412;-74
2020/12/11 05:27:33;;;;;;;30.92;18.98;;;0.30;99.90;;;;;;4968196;28;20031;-73
2020/12/11 05:30:14;;;;;;;31.48;19.17;;;0.40;99.90;;;;;;4968145;28;20073;-74
2020/12/11 05:32:49;;;;;;;31.63;18.90;;;0.50;99.90;;;;;;4968042;28;20058;-73
2020/12/11 05:35:17;;;;;;;30.63;19.30;;;0.50;99.90;;;;;;4967463;28;20018;-73
2020/12/11 05:37:50;;;;;;;30.90;18.98;;;0.50;99.90;;;;;;4968429;28;20098;-73
2020/12/11 05:40:35;;;;;;;31.85;19.15;;;0.60;99.90;;;;;;4968096;28;20438;-73
2020/12/11 05:43:22;;;;;;;29.33;18.42;;;0.70;99.90;;;;;;4967993;28;20514;-73
2020/12/11 05:45:54;;;;;;;32.70;20.00;;;0.70;99.90;;;;;;4983069;28;20753;-74
2020/12/11 05:48:22;;;;;;;26.95;17.23;;;0.80;99.90;;;;;;4967301;28;20030;-74
2020/12/11 05:50:48;;;;;;;30.77;19.35;;;0.90;99.90;;;;;;4968586;28;20030;-75
2020/12/11 05:53:14;;;;;;;29.10;17.88;;;0.90;99.90;;;;;;4968784;28;20459;-74
2020/12/11 05:55:39;;;;;;;31.15;18.80;;;0.90;99.90;;;;;;4968814;28;20035;-73
2020/12/11 05:58:09;;;;;;;29.95;18.38;;;0.70;99.90;;;;;;4968836;28;20814;-74
2020/12/11 06:00:34;;;;;;;28.80;18.58;;;0.60;99.90;;;;;;4968908;28;20034;-74
2020/12/11 06:03:01;;;;;;;29.83;17.77;;;0.70;99.90;;;;;;4953799;28;20019;-73
2020/12/11 06:05:27;;;;;;;29.60;18.65;;;0.70;99.90;;;;;;4949241;28;20031;-74
2020/12/11 06:07:53;;;;;;;29.58;18.42;;;0.60;99.90;;;;;;4948603;28;20098;-73
2020/12/11 06:10:21;;;;;;;30.25;18.38;;;0.70;99.90;;;;;;4952383;28;20027;-73
2020/12/11 06:12:48;;;;;;;27.48;17.42;;;0.70;99.90;;;;;;4971877;28;20027;-73
2020/12/11 06:15:22;;;;;;;30.80;18.48;;;0.80;99.90;;;;;;4971561;28;20139;-73
2020/12/11 06:17:54;;;;;;;32.28;18.65;;;0.80;99.90;;;;;;4969299;28;20035;-73
2020/12/11 06:20:20;;;;;;;28.70;17.42;;;0.90;99.90;;;;;;4970010;28;20122;-73
2020/12/11 06:22:46;;;;;;;32.83;19.00;;;0.90;99.90;;;;;;4970678;28;20045;-73
2020/12/11 06:25:31;;;;;;;32.00;18.73;;;0.90;99.90;;;;;;4969175;28;20042;-73
2020/12/11 06:27:59;;;;;;;33.58;19.88;;;0.90;99.90;;;;;;4969224;28;20557;-74
2020/12/11 06:30:32;;;;;;;29.95;18.27;;;0.70;99.90;;;;;;4985086;28;20084;-74
2020/12/11 06:32:59;;;;;;;35.30;20.02;;;0.80;99.90;;;;;;4968985;28;20114;-74
2020/12/11 06:35:26;;;;;;;39.92;21.83;;;0.80;99.90;;;;;;4969183;28;20161;-74
2020/12/11 06:37:52;;;;;;;39.22;22.10;;;0.80;99.90;;;;;;4969143;28;20107;-74
2020/12/11 06:40:50;;;;;;;36.88;21.30;;;0.80;99.90;;;;;;4968867;28;20504;-73
2020/12/11 06:43:44;;;;;;;31.20;18.70;;;0.80;99.90;;;;;;4969256;28;20054;-73
2020/12/11 06:46:14;;;;;;;31.38;18.08;;;0.80;99.90;;;;;;4967940;28;20426;-73
2020/12/11 06:49:08;;;;;;;31.95;18.80;;;0.60;99.90;;;;;;4967701;28;20573;-73
2020/12/11 06:51:54;;;;;;;31.98;19.48;;;0.50;99.90;;;;;;4969172;28;20051;-74
2020/12/11 06:54:23;;;;;;;38.43;21.20;;;0.50;99.90;;;;;;4968715;28;20066;-74
2020/12/11 06:56:53;;;;;;;32.42;19.83;;;0.30;99.90;;;;;;4968849;28;20078;-74
2020/12/11 06:59:26;;;;;;;33.25;19.48;;;0.40;99.90;;;;;;4968513;28;20022;-74
2020/12/11 07:01:56;;;;;;;36.38;20.38;;;0.30;99.90;;;;;;4983096;28;20019;-73
2020/12/11 07:04:23;;;;;;;31.75;19.00;;;0.40;99.90;;;;;;4967870;28;20035;-73
2020/12/11 07:06:53;;;;;;;33.95;19.08;;;0.50;99.90;;;;;;4969414;28;20027;-73
2020/12/11 07:09:19;;;;;;;29.05;17.45;;;0.50;99.90;;;;;;4968694;28;20023;-72
2020/12/11 07:11:46;;;;;;;38.97;20.75;;;0.50;99.90;;;;;;4969554;28;20022;-74
2020/12/11 07:14:12;;;;;;;37.57;20.63;;;0.60;99.90;;;;;;4983509;28;20122;-74
2020/12/11 07:16:39;;;;;;;26.30;17.23;;;0.60;99.90;;;;;;4944937;28;690925;-73
2020/12/11 07:19:06;;;;;;;31.05;17.58;;;0.50;99.90;;;;;;4970436;28;20058;-73
2020/12/11 07:21:33;;;;;;;30.63;17.87;;;0.60;99.90;;;;;;4969763;28;20070;-74
2020/12/11 07:24:07;;;;;;;28.47;17.23;;;0.60;99.90;;;;;;4969813;28;20730;-74
2020/12/11 07:26:32;;;;;;;29.40;17.63;;;0.60;99.90;;;;;;4970128;28;20026;-74
2020/12/11 07:29:02;;;;;;;28.75;17.35;;;0.60;99.90;;;;;;4970241;28;20030;-72
2020/12/11 07:31:28;;;;;;;27.98;17.13;;;0.80;99.90;;;;;;4985889;28;20457;-74
2020/12/11 07:33:54;;;;;;;30.05;18.35;;;0.80;99.90;;;;;;4970115;28;20560;-74
2020/12/11 07:36:20;;;;;;;28.02;17.20;;;0.90;99.90;;;;;;4984856;28;20031;-74
2020/12/11 07:38:46;;;;;;;26.17;17.23;;;0.90;99.90;;;;;;4985575;28;20386;-74
2020/12/11 07:41:17;;;;;;;29.60;18.00;;;1.00;99.90;;;;;;4969858;28;20628;-74
2020/12/11 07:43:47;;;;;;;26.92;16.88;;;1.00;99.90;;;;;;4970288;28;20039;-74
2020/12/11 07:46:20;;;;;;;26.58;17.17;;;;;;;;;;4970042;28;20047;-74
2020/12/11 07:48:50;;;;;;;27.38;16.77;;;;;;;;;;4970078;28;20038;-74
2020/12/11 07:51:17;;;;;;;24.10;15.93;;;;;;;;;;4984892;28;20066;-74
2020/12/11 07:53:50;;;;;;;26.33;16.27;;;;;;;;;;4969761;28;20113;-75
2020/12/11 07:56:16;;;;;;;23.77;15.07;;;;;;;;;;4969545;28;20324;-75
2020/12/11 07:58:42;;;;;;;24.63;15.80;;;;;;;;;;4970088;28;20038;-74
2020/12/11 08:01:08;;;;;;;24.73;15.70;;;;;;;;;;4969797;28;20113;-75
2020/12/11 08:03:34;;;;;;;24.73;16.10;;;;;;;;;;4969610;28;20049;-75
2020/12/11 08:06:00;;;;;;;26.70;17.38;;;;;;;;;;4969640;28;20038;-74
2020/12/11 08:08:27;;;;;;;27.23;16.85;;;;;;;;;;4969757;28;20344;-74
2020/12/11 08:10:53;;;;;;;26.30;16.40;;;;;;;;;;4969777;28;20610;-74
2020/12/11 08:13:21;;;;;;;26.40;17.30;;;;;;;;;;4969695;28;20726;-75
2020/12/11 08:15:47;;;;;;;28.95;17.13;;;;;;;;;;4968492;28;20503;-75
2020/12/11 08:18:26;;;;;;;27.85;17.60;;;1.10;99.90;;;;;;4969348;28;20030;-74
2020/12/11 08:21:00;;;;;;;27.73;17.95;;;1.80;99.90;;;;;;4984226;28;20034;-74
2020/12/11 08:23:35;;;;;;;26.88;17.50;;;1.80;99.90;;;;;;4969459;28;20038;-73
2020/12/11 08:26:05;;;;;;;68.50;53.42;;;2.00;99.90;;;;;;4968647;28;20030;-74
2020/12/11 08:28:30;;;;;;;36.17;24.70;;;2.20;99.90;;;;;;4983888;28;20134;-74
2020/12/11 08:30:56;;;;;;;30.98;20.65;;;2.30;99.90;;;;;;4969437;28;20115;-74
2020/12/11 08:33:24;;;;;;;37.03;21.50;;;2.40;99.90;;;;;;4968305;28;20647;-74
2020/12/11 08:35:51;;;;;;;33.10;19.58;;;2.00;99.90;;;;;;4968913;28;20386;-74
2020/12/11 08:38:16;;;;;;;31.40;19.73;;;1.90;99.90;;;;;;4969273;28;20139;-74
2020/12/11 08:40:48;;;;;;;33.22;19.10;;;1.80;99.90;;;;;;4969094;28;20035;-74
2020/12/11 08:49:29;;;;;;;31.42;17.73;;;;;;;;;;4969210;28;20069;-74
2020/12/11 08:51:42;;;;;;;28.35;18.20;;;;;;;;;;4969941;28;20122;-74
2020/12/11 08:54:09;;;;;;;26.63;16.80;;;;;;;;;;4967042;28;20031;-73
2020/12/11 08:56:36;;;;;;;26.63;17.70;;;;;;;;;;4983557;28;20385;-74
2020/12/11 08:59:02;;;;;;;26.38;16.33;;;;;;;;;;4983509;28;20066;-74
2020/12/11 09:01:28;;;;;;;24.63;17.02;;;;;;;;;;4968941;28;20034;-75
2020/12/11 09:03:53;;;;;;;25.02;15.93;;;1.30;99.90;;;;;;4951608;28;20034;-75
2020/12/11 09:06:19;;;;;;;24.20;15.90;;;2.90;99.90;;;;;;4949918;28;20027;-75
2020/12/11 09:08:44;;;;;;;23.23;15.82;;;3.40;99.90;;;;;;4949054;28;20031;-74
2020/12/11 09:11:10;;;;;;;23.60;15.52;;;3.70;99.90;;;;;;4950245;28;20142;-74
2020/12/11 09:13:36;;;;;;;23.15;16.10;;;4.00;99.90;;;;;;4948348;28;20591;-74
2020/12/11 09:16:02;;;;;;;23.73;15.60;;;4.20;99.90;;;;;;4946815;28;20031;-74
2020/12/11 09:18:27;;;;;;;22.17;15.23;;;4.30;99.90;;;;;;4947706;28;20027;-74
2020/12/11 09:20:54;;;;;;;21.88;15.18;;;4.60;99.90;;;;;;4948583;28;20106;-74
2020/12/11 09:23:19;;;;;;;21.75;14.75;;;4.90;99.90;;;;;;4948515;28;20035;-74
2020/12/11 09:25:45;;;;;;;22.95;15.35;;;5.30;99.90;;;;;;4965551;28;20646;-74
2020/12/11 09:28:14;;;;;;;29.35;17.52;;;5.40;99.90;;;;;;4967707;28;20070;-75
2020/12/11 09:30:41;;;;;;;28.75;19.27;;;4.90;99.90;;;;;;4967804;28;20038;-73
2020/12/11 09:33:16;;;;;;;22.92;16.15;;;5.10;99.90;;;;;;4967987;28;20540;-73
2020/12/11 09:35:41;;;;;;;22.92;15.35;;;5.30;99.90;;;;;;4967385;28;20066;-75
2020/12/11 09:38:07;;;;;;;35.95;21.00;;;4.60;99.90;;;;;;4967902;28;20073;-74
2020/12/11 09:40:51;;;;;;;38.70;25.42;;;4.80;99.90;;;;;;4968524;28;20062;-74
2020/12/11 09:51:48;;;;;;;23.95;14.80;;;6.40;99.90;;;;;;4969362;28;20034;-75
2020/12/11 09:56:23;;;;;;;22.13;15.57;;;5.90;99.90;;;;;;4967674;28;20033;-75
2020/12/11 09:58:50;;;;;;;23.45;16.35;;;5.70;99.80;;;;;;4967703;28;20039;-74
2020/12/11 10:01:20;;;;;;;23.65;16.05;;;5.40;99.90;;;;;;4967750;28;20038;-74
2020/12/11 10:03:46;;;;;;;24.42;17.67;;;5.20;99.90;;;;;;4975200;28;20027;-75
2020/12/11 10:06:11;;;;;;;23.40;16.45;;;4.90;99.90;;;;;;4948233;28;20835;-75
2020/12/11 10:08:37;;;;;;;25.75;16.27;;;4.70;99.90;;;;;;4947108;28;20039;-74
2020/12/11 10:11:03;;;;;;;24.83;16.35;;;4.50;99.90;;;;;;4948100;28;20027;-75
2020/12/11 10:13:29;;;;;;;25.38;16.77;;;4.50;99.90;;;;;;4948112;28;20130;-74
2020/12/11 10:15:54;;;;;;;25.00;15.93;;;4.30;99.90;;;;;;4948987;28;20486;-75
2020/12/11 10:18:20;;;;;;;24.98;16.25;;;4.20;99.90;;;;;;4967473;28;20035;-75
2020/12/11 10:20:46;;;;;;;26.73;16.50;;;4.10;99.90;;;;;;4982429;28;20106;-76
2020/12/11 10:23:11;;;;;;;23.55;16.25;;;4.00;99.90;;;;;;4967463;28;20552;-75
2020/12/11 10:25:37;;;;;;;26.13;16.38;;;3.80;99.90;;;;;;4966562;28;20053;-74
2020/12/11 10:28:02;;;;;;;27.42;15.80;;;4.00;99.90;;;;;;4967131;28;20545;-75
2020/12/11 10:30:28;;;;;;;25.52;15.93;;;4.20;99.90;;;;;;4982346;28;20033;-75
2020/12/11 10:32:54;;;;;;;24.63;16.73;;;4.50;99.90;;;;;;4967535;28;20031;-75
2020/12/11 10:35:20;;;;;;;22.60;14.75;;;4.90;99.90;;;;;;4966458;28;20753;-74
2020/12/11 10:37:45;;;;;;;20.48;14.65;;;5.60;99.90;;;;;;4967434;28;20038;-75
2020/12/11 10:40:11;;;;;;;22.67;14.57;;;6.10;99.90;;;;;;4967193;28;20062;-75
2020/12/11 10:42:37;;;;;;;21.80;14.57;;;6.80;99.90;;;;;;4967469;28;20042;-75
2020/12/11 10:45:02;;;;;;;23.13;14.73;;;7.50;99.90;;;;;;4967045;28;20037;-76
2020/12/11 10:47:29;;;;;;;23.92;14.65;;;8.00;99.30;;;;;;4967130;28;20035;-74
2020/12/11 10:49:55;;;;;;;18.60;13.68;;;8.00;97.60;;;;;;4967618;28;20124;-73
2020/12/11 10:52:20;;;;;;;20.55;14.35;;;7.50;97.20;;;;;;4967006;28;20751;-74
2020/12/11 10:54:47;;;;;;;20.23;13.77;;;7.00;97.70;;;;;;4966906;28;20047;-75
2020/12/11 10:57:14;;;;;;;25.03;14.60;;;6.60;98.60;;;;;;4968605;28;20073;-73
2020/12/11 10:59:39;;;;;;;21.25;14.45;;;6.20;99.30;;;;;;4970773;28;20089;-74
2020/12/11 11:02:06;;;;;;;23.98;15.25;;;5.50;99.90;;;;;;4969229;28;20031;-73
2020/12/11 11:04:31;;;;;;;21.50;15.00;;;5.30;99.90;;;;;;4984944;28;20027;-75
2020/12/11 11:07:04;;;;;;;22.02;15.20;;;5.30;99.90;;;;;;4969365;28;20096;-74
2020/12/11 11:12:30;;;;;;;21.70;15.20;;;4.90;99.90;;;;;;5000915;28;20043;-73
2020/12/11 11:22:54;;;;;;;23.48;13.98;;;4.60;99.90;;;;;;4969933;28;20031;-74
2020/12/11 11:28:00;;;;;;;19.17;13.15;;;4.80;99.90;;;;;;4970455;28;20058;-75
2020/12/11 11:30:28;;;;;;;20.35;13.80;;;4.60;99.90;;;;;;4970618;28;20031;-73
2020/12/11 11:32:53;;;;;;;;;;;4.80;99.90;;;;;;4971482;28;20022;-75
2020/12/11 11:35:20;;;;;;;18.60;13.15;;;5.30;99.90;;;;;;4971095;28;19906;-74
2020/12/11 11:37:46;;;;;;;19.75;13.23;;;5.70;99.90;;;;;;4971429;28;20026;-75
2020/12/11 11:40:12;;;;;;;19.80;13.18;;;6.00;99.90;;;;;;4970630;28;20034;-76
2020/12/11 11:42:38;;;;;;;18.25;12.73;;;6.20;99.90;;;;;;4970274;28;20471;-75
2020/12/11 11:45:09;;;;;;;17.60;12.40;;;6.50;99.90;;;;;;4969447;28;20026;-76
2020/12/11 11:47:36;;;;;;;17.15;12.15;;;6.50;99.90;;;;;;4969714;28;20030;-75
2020/12/11 11:52:47;;;;;;;17.60;12.75;;;6.50;99.90;;;;;;4969931;28;20030;-76
2020/12/11 11:55:13;;;;;;;21.73;12.45;;;5.90;99.90;;;;;;4969229;28;20069;-75
2020/12/11 11:57:42;;;;;;;19.75;12.93;;;5.80;99.90;;;;;;4969993;28;20026;-76
2020/12/11 12:00:09;;;;;;;20.90;12.70;;;5.60;99.90;;;;;;4970092;28;20046;-76
2020/12/11 12:02:35;;;;;;;19.98;13.35;;;5.40;99.90;;;;;;4969791;28;20035;-77
2020/12/11 12:05:01;;;;;;;19.00;12.98;;;5.20;99.90;;;;;;4967331;28;20264;-77
2020/12/11 12:07:28;;;;;;;19.05;12.57;;;5.20;99.90;;;;;;4969543;28;20034;-76
2020/12/11 12:09:55;;;;;;;21.38;13.68;;;5.00;99.90;;;;;;4970669;28;20083;-78
2020/12/11 12:12:20;;;;;;;18.70;12.65;;;5.00;99.90;;;;;;4969096;28;20031;-76
2020/12/11 12:14:48;;;;;;;17.98;12.27;;;5.30;99.90;;;;;;4970012;28;20023;-77
2020/12/11 12:17:14;;;;;;;19.45;13.00;;;5.60;99.90;;;;;;4968981;28;20035;-76
2020/12/11 12:19:46;;;;;;;18.40;12.70;;;5.90;99.90;;;;;;4961434;28;20150;-76
2020/12/11 12:30:03;;;;;;;21.40;13.63;;;5.60;99.90;;;;;;4955861;28;20043;-75
2020/12/11 12:32:34;;;;;;;24.73;13.93;;;5.50;99.90;;;;;;4967770;28;20034;-74
2020/12/11 12:35:02;;;;;;;19.92;13.48;;;5.40;99.90;;;;;;4966861;28;20023;-75
2020/12/11 12:40:18;;;;;;;19.63;13.57;;;5.20;99.90;;;;;;4970566;28;20027;-75
2020/12/11 12:45:29;;;;;;;17.90;12.00;;;5.00;99.90;;;;;;4947496;29;20138;-74
2020/12/11 12:47:54;;;;;;;21.20;13.93;;;4.90;99.90;;;;;;4949848;28;20394;-76
2020/12/11 12:50:20;;;;;;;24.95;13.95;;;4.70;99.90;;;;;;4949557;28;20034;-75
2020/12/11 12:52:48;;;;;;;22.75;13.95;;;4.60;99.90;;;;;;4950031;29;20034;-74
2020/12/11 12:55:15;;;;;;;24.65;14.65;;;4.50;99.90;;;;;;4949375;28;20069;-76
2020/12/11 13:00:23;;;;;;;20.38;13.18;;;4.40;99.90;;;;;;4950733;28;19910;-78
2020/12/11 13:05:20;;;;;;;22.67;13.38;;;4.40;99.90;;;;;;4942225;28;20643;-78
2020/12/11 13:07:46;;;;;;;22.23;13.50;;;4.30;99.90;;;;;;4962826;28;20039;-80
2020/12/11 13:10:13;;;;;;;21.38;13.43;;;4.30;99.90;;;;;;4960087;28;20125;-77
2020/12/11 13:12:41;;;;;;;20.52;13.30;;;4.30;99.90;;;;;;4956014;28;20538;-76
2020/12/11 13:15:06;;;;;;;24.73;15.10;;;4.40;99.90;;;;;;4969338;28;20023;-77
2020/12/11 13:17:32;;;;;;;24.52;15.18;;;4.40;99.90;;;;;;4967428;28;20031;-76
2020/12/11 13:19:59;;;;;;;21.23;14.18;;;4.40;99.90;;;;;;4973727;28;20053;-77
2020/12/11 13:22:35;;;;;;;19.98;13.68;;;4.30;99.90;;;;;;4976715;28;20034;-76
2020/12/11 13:25:39;;;;;;;20.27;13.63;;;4.40;99.90;;;;;;4968981;28;20035;-76
2020/12/11 13:28:04;;;;;;;21.52;14.13;;;4.40;99.90;;;;;;4966379;28;20035;-79
2020/12/11 13:30:30;;;;;;;22.90;14.38;;;4.50;99.90;;;;;;4970648;28;20046;-77
2020/12/11 13:32:55;;;;;;;21.20;13.75;;;4.60;99.90;;;;;;4970919;28;20034;-77
2020/12/11 13:35:21;;;;;;;21.58;13.50;;;4.60;99.90;;;;;;4972644;28;20105;-77
2020/12/11 13:37:46;;;;;;;19.60;13.00;;;4.50;99.90;;;;;;4970195;28;20487;-77
2020/12/11 13:40:12;;;;;;;21.52;12.90;;;4.50;99.90;;;;;;4966801;28;20026;-78
2020/12/11 13:42:38;;;;;;;22.30;13.40;;;4.60;99.90;;;;;;4968536;28;20490;-77
2020/12/11 13:45:03;;;;;;;19.85;13.60;;;4.70;99.90;;;;;;4968164;28;20027;-80
2020/12/11 13:47:29;;;;;;;19.60;13.05;;;4.70;99.90;;;;;;4968544;28;20037;-80
2020/12/11 13:49:55;;;;;;;19.42;12.68;;;4.70;99.90;;;;;;4968006;28;20093;-83
2020/12/11 13:52:20;;;;;;;18.45;12.57;;;4.70;99.90;;;;;;4971142;28;20028;-79
2020/12/11 13:54:46;;;;;;;18.83;12.13;;;4.70;99.90;;;;;;4966355;28;20411;-78
2020/12/11 13:57:12;;;;;;;18.05;10.93;;;4.50;99.90;;;;;;4968298;28;20033;-77